createdAt,value
2019-02-09T00:01:50.847Z,99888.93
2019-02-09T00:06:52.807Z,99897.58
2019-02-09T00:11:54.383Z,99897.00
2019-02-09T00:16:55.925Z,99907.15
2019-02-09T00:21:57.546Z,99892.89
2019-02-09T00:26:59.661Z,99895.50
2019-02-09T00:32:01.238Z,99897.26
2019-02-09T00:37:02.738Z,99886.80
2019-02-09T00:42:04.296Z,99889.50
2019-02-09T00:47:05.817Z,99884.69
2019-02-09T00:52:07.440Z,99886.69
2019-02-09T00:57:08.999Z,99881.66
2019-02-09T01:02:10.568Z,99896.14
2019-02-09T01:07:12.266Z,99895.78
2019-02-09T01:12:14.310Z,99900.13
2019-02-09T01:17:15.958Z,99892.53
2019-02-09T01:22:17.466Z,99892.91
2019-02-09T01:27:19.068Z,99904.39
2019-02-09T01:32:20.676Z,99904.52
2019-02-09T01:37:22.212Z,99903.83
2019-02-09T01:42:23.844Z,99920.89
2019-02-09T01:47:25.472Z,99920.80
2019-02-09T01:52:27.059Z,99920.80
2019-02-09T01:57:29.148Z,99937.22
2019-02-09T02:02:30.812Z,99915.55
2019-02-09T02:07:32.389Z,99920.97
2019-02-09T02:12:34.311Z,99910.95
2019-02-09T02:17:35.833Z,99906.16
2019-02-09T02:22:37.476Z,99911.05
2019-02-09T02:27:39.026Z,99899.71
2019-02-09T02:32:40.578Z,99892.44
2019-02-09T02:37:42.220Z,99900.05
2019-02-09T02:42:43.728Z,99918.63
2019-02-09T02:47:45.289Z,99931.13
2019-02-09T02:52:46.787Z,99910.94
2019-02-09T02:57:49.800Z,99923.00
2019-02-09T03:02:51.362Z,99931.05
2019-02-09T03:07:53.255Z,99946.53
2019-02-09T03:12:54.776Z,99929.41
2019-02-09T03:17:56.317Z,99936.57
2019-02-09T03:22:57.845Z,99945.34
2019-02-09T03:27:59.375Z,99942.43
2019-02-09T03:33:00.923Z,99945.45
2019-02-09T03:38:02.434Z,99957.39
2019-02-09T03:43:04.069Z,99947.58
2019-02-09T03:48:05.618Z,99966.02
2019-02-09T03:53:07.098Z,99969.67
2019-02-09T03:58:08.641Z,99979.19
2019-02-09T04:03:10.188Z,99972.59
2019-02-09T04:08:11.732Z,99985.91
2019-02-09T04:13:13.628Z,99992.65
2019-02-09T04:18:15.439Z,99993.87
2019-02-09T04:23:16.965Z,100006.23
2019-02-09T04:28:19.254Z,99998.84
2019-02-09T04:33:20.790Z,100010.37
2019-02-09T04:38:22.344Z,100014.41
2019-02-09T04:43:23.912Z,100021.95
2019-02-09T04:48:26.381Z,100022.55
2019-02-09T04:53:27.907Z,100034.53
2019-02-09T04:58:29.526Z,100038.23
2019-02-09T05:03:31.092Z,100040.52
2019-02-09T05:08:32.701Z,100047.83
2019-02-09T05:13:34.235Z,100063.91
2019-02-09T05:18:35.781Z,100068.19
2019-02-09T05:23:37.320Z,100069.12
2019-02-09T05:28:38.901Z,100070.61
2019-02-09T05:33:40.482Z,100074.31
2019-02-09T05:38:42.011Z,100073.38
2019-02-09T05:43:43.552Z,100084.58
2019-02-09T05:48:45.188Z,100093.53
2019-02-09T05:53:46.751Z,100104.02
2019-02-09T05:58:48.444Z,100113.02
2019-02-09T06:03:49.991Z,100123.10
2019-02-09T06:08:51.575Z,100110.47
2019-02-09T06:13:53.101Z,100119.98
2019-02-09T06:18:54.645Z,100138.30
2019-02-09T06:23:56.182Z,100124.72
2019-02-09T06:28:58.107Z,100137.94
2019-02-09T06:33:59.649Z,100149.96
2019-02-09T06:39:01.167Z,100125.90
2019-02-09T06:44:02.733Z,100128.23
2019-02-09T06:49:04.305Z,100134.48
2019-02-09T06:54:06.185Z,100149.99
2019-02-09T06:59:07.724Z,100165.58
2019-02-09T07:04:09.313Z,100160.23
2019-02-09T07:09:11.145Z,100163.33
2019-02-09T07:14:12.680Z,100160.45
2019-02-09T07:19:14.316Z,100166.06
2019-02-09T07:24:16.285Z,100160.98
2019-02-09T07:29:17.855Z,100171.20
2019-02-09T07:34:19.739Z,100179.90
2019-02-09T07:39:21.303Z,100182.45
2019-02-09T07:44:23.889Z,100192.61
2019-02-09T07:49:25.957Z,100198.38
2019-02-09T07:54:27.583Z,100193.43
2019-02-09T07:59:29.171Z,100214.16
2019-02-09T08:04:30.733Z,100215.95
2019-02-09T08:09:33.181Z,100219.52
2019-02-09T08:14:34.758Z,100213.45
2019-02-09T08:19:41.841Z,100217.95
2019-02-09T08:24:45.517Z,100232.71
2019-02-09T08:29:47.025Z,100219.66
2019-02-09T08:34:48.552Z,100242.80
2019-02-09T08:39:50.440Z,100223.35
2019-02-09T08:44:52.009Z,100208.59
2019-02-09T08:49:53.672Z,100235.59
2019-02-09T08:54:55.335Z,100261.45
2019-02-09T08:59:56.887Z,100255.34
2019-02-09T09:04:58.489Z,100241.83
2019-02-09T09:10:00.008Z,100244.95
2019-02-09T09:15:01.625Z,100255.50
2019-02-09T09:20:06.753Z,100258.66
2019-02-09T09:25:08.325Z,100261.64
2019-02-09T09:30:12.143Z,100258.01
2019-02-09T09:35:14.056Z,100276.80
2019-02-09T09:40:18.287Z,100276.62
2019-02-09T09:45:22.217Z,100279.76
2019-02-09T09:50:24.034Z,100280.41
2019-02-09T09:55:26.560Z,100292.95
2019-02-09T10:00:28.515Z,100289.02
2019-02-09T10:05:30.582Z,100311.02
2019-02-09T10:10:32.529Z,100314.05
2019-02-09T10:15:35.550Z,100297.12
2019-02-09T10:20:38.224Z,100300.19
2019-02-09T10:25:39.821Z,100343.88
2019-02-09T10:30:41.380Z,100347.69
2019-02-09T10:35:43.030Z,100328.41
2019-02-09T10:40:44.966Z,100337.62
2019-02-09T10:45:46.507Z,100326.05
2019-02-09T10:50:48.091Z,100355.91
2019-02-09T10:55:49.806Z,100376.06
2019-02-09T11:00:57.655Z,100370.44
2019-02-09T11:05:59.359Z,100349.09
2019-02-09T11:11:00.961Z,100353.98
2019-02-09T11:16:02.638Z,100353.14
2019-02-09T11:21:04.530Z,100387.77
2019-02-09T11:26:06.063Z,100364.09
2019-02-09T11:31:07.976Z,100351.77
2019-02-09T11:36:09.513Z,100386.17
2019-02-09T11:41:26.312Z,100377.55
2019-02-09T11:46:28.056Z,100384.17
2019-02-09T11:51:29.582Z,100399.97
2019-02-09T11:56:31.184Z,100390.65
2019-02-09T12:01:32.762Z,100410.56
2019-02-09T12:06:34.707Z,100375.57
2019-02-09T12:11:36.260Z,100451.08
2019-02-09T12:16:37.792Z,100444.00
2019-02-09T12:21:39.347Z,100450.22
2019-02-09T12:26:40.900Z,100425.72
2019-02-09T12:31:42.567Z,100415.85
2019-02-09T12:36:44.113Z,100429.59
2019-02-09T12:41:45.678Z,100446.74
2019-02-09T12:46:47.210Z,100444.25
2019-02-09T12:51:48.771Z,100441.70
2019-02-09T12:56:50.321Z,100429.31
2019-02-09T13:01:51.865Z,100449.59
2019-02-09T13:06:54.310Z,100457.31
2019-02-09T13:11:55.856Z,100450.16
2019-02-09T13:16:57.859Z,100459.97
2019-02-09T13:21:59.545Z,100468.86
2019-02-09T13:27:01.060Z,100466.11
2019-02-09T13:32:03.048Z,100463.80
2019-02-09T13:37:05.335Z,100497.87
2019-02-09T13:42:06.902Z,100495.04
2019-02-09T13:47:08.485Z,100519.94
2019-02-09T13:52:10.699Z,100528.70
2019-02-09T13:57:12.246Z,100527.06
2019-02-09T14:02:13.831Z,100594.84
2019-02-09T14:07:15.394Z,100559.17
2019-02-09T14:12:17.083Z,100564.30
2019-02-09T14:17:18.604Z,100554.10
2019-02-09T14:22:20.156Z,100555.19
2019-02-09T14:27:21.798Z,100543.60
2019-02-09T14:32:23.318Z,100542.95
2019-02-09T14:37:24.994Z,100548.59
2019-02-09T14:42:26.568Z,100539.11
2019-02-09T14:47:28.254Z,100553.30
2019-02-09T14:52:29.775Z,100566.60
2019-02-09T14:57:31.361Z,100561.14
2019-02-09T15:02:32.973Z,100564.11
2019-02-09T15:07:34.580Z,100581.27
2019-02-09T15:12:36.131Z,100576.40
2019-02-09T15:17:37.697Z,100577.19
2019-02-09T15:22:40.278Z,100581.11
2019-02-09T15:27:41.860Z,100595.90
2019-02-09T15:32:43.461Z,100593.31
2019-02-09T15:37:48.000Z,100603.80
2019-02-09T15:42:49.647Z,100606.68
2019-02-09T15:47:51.252Z,100624.38
2019-02-09T15:52:52.955Z,100642.98
2019-02-09T15:57:54.563Z,100641.67
2019-02-09T16:02:56.188Z,100639.75
2019-02-09T16:07:57.799Z,100652.69
2019-02-09T16:12:59.856Z,100650.59
2019-02-09T16:18:01.346Z,100650.70
2019-02-09T16:23:02.924Z,100653.08
2019-02-09T16:28:04.549Z,100668.75
2019-02-09T16:33:06.511Z,100667.45
2019-02-09T16:38:08.143Z,100675.56
2019-02-09T16:43:10.110Z,100671.59
2019-02-09T16:48:12.038Z,100681.75
2019-02-09T16:53:13.659Z,100690.78
2019-02-09T16:58:15.216Z,100693.41
2019-02-09T17:03:16.791Z,100694.22
2019-02-09T17:08:18.705Z,100692.99
2019-02-09T17:13:20.489Z,100694.80
2019-02-09T17:18:22.086Z,100695.77
2019-02-09T17:23:23.721Z,100692.60
2019-02-09T17:28:25.335Z,100707.13
2019-02-09T17:33:27.230Z,100704.24
2019-02-09T17:38:29.145Z,100709.89
2019-02-09T17:43:31.114Z,100708.03
2019-02-09T17:48:32.863Z,100711.91
2019-02-09T17:53:34.574Z,100726.22
2019-02-09T17:58:36.229Z,100719.08
2019-02-09T18:03:38.116Z,100716.73
2019-02-09T18:08:41.764Z,100731.13
2019-02-09T18:13:43.522Z,100725.70
2019-02-09T18:18:45.120Z,100723.22
2019-02-09T18:23:47.058Z,100730.46
2019-02-09T18:28:48.654Z,100737.77
2019-02-09T18:33:50.375Z,100746.69
2019-02-09T18:38:51.950Z,100761.08
2019-02-09T18:43:53.922Z,100756.08
2019-02-09T18:48:55.565Z,100767.50
2019-02-09T18:53:57.113Z,100772.58
2019-02-09T18:58:59.166Z,100768.86
2019-02-09T19:04:00.790Z,100771.90
2019-02-09T19:09:06.258Z,100770.33
2019-02-09T19:14:07.928Z,100761.52
2019-02-09T19:19:09.492Z,100771.90
2019-02-09T19:24:11.161Z,100777.33
2019-02-09T19:29:12.722Z,100765.38
2019-02-09T19:34:14.423Z,100769.30
2019-02-09T19:39:15.940Z,100752.07
2019-02-09T19:44:17.551Z,100751.66
2019-02-09T19:49:19.295Z,100740.70
2019-02-09T19:54:21.024Z,100732.91
2019-02-09T19:59:22.942Z,100741.60
2019-02-09T20:04:24.941Z,100735.82
2019-02-09T20:09:27.125Z,100726.17
2019-02-09T20:14:28.985Z,100726.88
2019-02-09T20:19:30.712Z,100733.69
2019-02-09T20:24:32.255Z,100730.25
2019-02-09T20:29:34.612Z,100719.64
2019-02-09T20:34:36.225Z,100724.45
2019-02-09T20:39:39.484Z,100726.93
2019-02-09T20:44:41.144Z,100725.42
2019-02-09T20:49:42.777Z,100710.95
2019-02-09T20:54:44.402Z,100715.63
2019-02-09T20:59:46.020Z,100716.39
2019-02-09T21:04:47.542Z,100708.95
2019-02-09T21:09:49.122Z,100719.91
2019-02-09T21:14:50.749Z,100719.41
2019-02-09T21:19:52.276Z,100715.23
2019-02-09T21:24:53.957Z,100714.87
2019-02-09T21:29:55.508Z,100725.22
2019-02-09T21:34:57.425Z,100721.22
2019-02-09T21:39:59.571Z,100708.22
2019-02-09T21:45:01.222Z,100707.78
2019-02-09T21:50:03.969Z,100699.25
2019-02-09T21:55:06.732Z,100701.87
2019-02-09T22:00:17.271Z,100696.02
2019-02-09T22:05:18.906Z,100684.81
2019-02-09T22:10:20.878Z,100670.75
2019-02-09T22:15:23.372Z,100661.33
2019-02-09T22:20:24.999Z,100661.73
2019-02-09T22:25:26.708Z,100648.66
2019-02-09T22:30:28.423Z,100642.96
2019-02-09T22:35:30.074Z,100641.44
2019-02-09T22:40:33.016Z,100629.66
2019-02-09T22:45:34.554Z,100624.70
2019-02-09T22:50:39.643Z,100621.62
2019-02-09T22:55:42.296Z,100611.22
2019-02-09T23:01:26.992Z,100606.52
2019-02-09T23:06:43.311Z,100597.81
2019-02-09T23:11:44.927Z,100582.80
2019-02-09T23:16:46.875Z,100567.20
2019-02-09T23:21:49.314Z,100570.17
2019-02-09T23:26:51.232Z,100551.73
2019-02-09T23:31:53.270Z,100530.40
2019-02-09T23:36:55.283Z,100526.27
2019-02-09T23:41:56.875Z,100509.22
2019-02-09T23:46:58.400Z,100503.22
2019-02-09T23:51:59.959Z,100496.19
2019-02-09T23:57:01.550Z,100483.52
